Time,TemperatureF,DewpointF,PressureIn,WindDirection,WindDirectionDegrees,WindSpeedMPH,WindSpeedGustMPH,Humidity,HourlyPrecipIn,Conditions,Clouds,dailyrainin,SoftwareType,DateUTC
2013-02-19 00:00:00,60.9,58.0,-100.00,ENE,67,6.9,13.7,89,0.00,,,0.00,,2013-02-19 06:00:00,
2013-02-19 00:05:00,60.8,57.9,-100.00,ENE,67,6.1,13.7,89,0.00,,,0.00,,2013-02-19 06:05:00,
2013-02-19 00:10:00,60.7,58.3,-100.00,ENE,67,5.9,10.1,91,0.00,,,0.00,,2013-02-19 06:10:00,
2013-02-19 00:15:00,60.6,58.0,-100.00,NE,45,6.0,10.2,91,0.00,,,0.00,,2013-02-19 06:15:00,
2013-02-19 00:20:00,60.6,57.5,-100.00,ENE,67,5.4,10.2,89,0.00,,,0.00,,2013-02-19 06:20:00,
2013-02-19 00:25:00,60.5,57.8,-100.00,ENE,67,5.8,9.9,90,0.00,,,0.00,,2013-02-19 06:25:00,
2013-02-19 00:30:00,60.5,57.1,-100.00,ENE,67,6.0,9.9,88,0.00,,,0.00,,2013-02-19 06:30:00,
2013-02-19 00:35:00,60.6,58.2,-100.00,ENE,67,6.0,12.2,91,0.00,,,0.00,,2013-02-19 06:35:00,
2013-02-19 00:40:00,60.6,58.2,-100.00,ENE,67,5.7,10.4,91,0.00,,,0.00,,2013-02-19 06:40:00,
2013-02-19 00:45:00,60.7,58.6,-100.00,NE,45,5.7,10.4,92,0.00,,,0.00,,2013-02-19 06:45:00,
2013-02-19 00:50:00,60.8,58.2,-100.00,ENE,67,5.1,10.2,91,0.00,,,0.00,,2013-02-19 06:50:00,
2013-02-19 00:55:00,60.8,57.7,-100.00,ENE,67,5.7,11.0,89,0.00,,,0.00,,2013-02-19 06:55:00,
2013-02-19 01:00:00,61.0,58.4,-100.00,ENE,67,5.5,9.5,91,0.00,,,0.00,,2013-02-19 07:00:00,
2013-02-19 01:05:00,61.0,58.1,-100.00,NE,45,4.9,9.8,89,0.00,,,0.00,,2013-02-19 07:05:00,
2013-02-19 01:10:00,61.0,58.4,-100.00,NE,45,5.4,9.8,91,0.00,,,0.00,,2013-02-19 07:10:00,
2013-02-19 01:15:00,61.1,57.7,-100.00,ENE,67,5.8,9.1,88,0.00,,,0.00,,2013-02-19 07:15:00,
2013-02-19 01:20:00,61.1,57.4,-100.00,ENE,67,6.3,11.5,87,0.00,,,0.00,,2013-02-19 07:20:00,
2013-02-19 01:25:00,61.0,58.2,-100.00,ENE,67,6.5,11.5,90,0.00,,,0.00,,2013-02-19 07:25:00,
2013-02-19 01:30:00,61.0,58.0,-100.00,ENE,67,6.8,11.1,89,0.00,,,0.00,,2013-02-19 07:30:00,
2013-02-19 01:35:00,61.0,57.7,-100.00,ENE,67,7.0,12.0,88,0.00,,,0.00,,2013-02-19 07:35:00,
2013-02-19 01:41:00,61.0,58.2,-100.00,ENE,67,7.1,12.0,90,0.00,,,0.00,,2013-02-19 07:41:00,
2013-02-19 01:46:00,60.7,57.1,-100.00,ENE,67,6.7,11.3,87,0.01,,,0.01,,2013-02-19 07:46:00,
2013-02-19 01:51:00,60.2,57.1,-100.00,East,90,6.0,11.3,89,0.01,,,0.01,,2013-02-19 07:51:00,
2013-02-19 01:56:00,60.2,57.4,-100.00,East,90,5.4,11.3,90,0.01,,,0.01,,2013-02-19 07:56:00,
2013-02-19 02:01:00,60.2,58.3,-100.00,East,90,5.1,10.2,93,0.01,,,0.01,,2013-02-19 08:01:00,
2013-02-19 02:06:00,60.2,59.1,-100.00,East,90,5.3,10.2,95,0.01,,,0.01,,2013-02-19 08:06:00,
2013-02-19 02:11:00,60.2,58.3,-100.00,East,90,4.6,8.5,93,0.01,,,0.01,,2013-02-19 08:11:00,
2013-02-19 02:16:00,60.3,58.1,-100.00,East,90,4.3,9.2,92,0.01,,,0.01,,2013-02-19 08:16:00,
2013-02-19 02:21:00,60.6,58.7,-100.00,East,90,4.9,8.5,93,0.01,,,0.01,,2013-02-19 08:21:00,
2013-02-19 02:26:00,60.6,58.6,-100.00,ESE,112,5.4,9.4,93,0.01,,,0.01,,2013-02-19 08:26:00,
2013-02-19 02:31:00,60.5,59.2,-100.00,ESE,112,5.0,8.5,95,0.01,,,0.01,,2013-02-19 08:31:00,
2013-02-19 02:36:00,60.3,58.4,-100.00,ESE,112,5.0,8.0,93,0.02,,,0.02,,2013-02-19 08:36:00,
2013-02-19 02:41:00,60.2,58.1,-100.00,East,90,3.9,7.2,92,0.02,,,0.02,,2013-02-19 08:41:00,
2013-02-19 02:46:00,60.3,58.8,-100.00,East,90,4.0,8.0,94,0.01,,,0.02,,2013-02-19 08:46:00,
2013-02-19 02:51:00,60.3,58.8,-100.00,East,90,4.7,9.2,94,0.02,,,0.03,,2013-02-19 08:51:00,
2013-02-19 02:56:00,60.2,58.1,-100.00,East,90,4.3,7.6,92,0.04,,,0.05,,2013-02-19 08:56:00,
2013-02-19 03:01:00,60.2,59.6,-100.00,East,90,4.8,10.5,97,0.06,,,0.07,,2013-02-19 09:01:00,
2013-02-19 03:06:00,60.0,59.0,-100.00,East,90,5.5,10.5,96,0.14,,,0.15,,2013-02-19 09:06:00,
2013-02-19 03:12:00,60.2,60.0,-100.00,ESE,112,5.8,10.2,99,0.19,,,0.20,,2013-02-19 09:12:00,
2013-02-19 03:17:00,59.8,58.9,-100.00,ESE,112,7.0,15.0,96,0.22,,,0.23,,2013-02-19 09:17:00,
2013-02-19 03:22:00,59.0,58.1,-100.00,East,90,7.6,15.0,96,0.23,,,0.24,,2013-02-19 09:22:00,
2013-02-19 03:27:00,58.9,57.8,-100.00,ESE,112,6.2,13.0,95,0.26,,,0.27,,2013-02-19 09:27:00,
2013-02-19 03:32:00,58.8,57.3,-100.00,ESE,112,5.7,13.0,94,0.30,,,0.31,,2013-02-19 09:32:00,
2013-02-19 03:37:00,58.8,57.7,-100.00,ESE,112,4.8,9.8,96,0.32,,,0.34,,2013-02-19 09:37:00,
2013-02-19 03:42:00,58.8,57.9,-100.00,East,90,4.6,8.2,96,0.36,,,0.38,,2013-02-19 09:42:00,
2013-02-19 03:47:00,58.8,58.1,-100.00,ESE,112,4.2,6.7,97,0.40,,,0.43,,2013-02-19 09:47:00,
2013-02-19 03:52:00,59.0,58.1,-100.00,SE,135,4.2,6.9,96,0.41,,,0.44,,2013-02-19 09:52:00,
2013-02-19 03:57:00,59.1,58.5,-100.00,SE,135,3.9,7.7,97,0.41,,,0.46,,2013-02-19 09:57:00,
2013-02-19 04:02:00,59.1,58.8,-100.00,SE,135,3.6,5.6,98,0.40,,,0.47,,2013-02-19 10:02:00,
2013-02-19 04:07:00,59.2,58.7,-100.00,SE,135,3.9,5.8,98,0.32,,,0.49,,2013-02-19 10:07:00,
2013-02-19 04:12:00,59.3,58.4,-100.00,SE,135,4.4,8.0,96,0.30,,,0.50,,2013-02-19 10:12:00,
2013-02-19 04:17:00,59.5,59.2,-100.00,SE,135,3.9,7.1,98,0.27,,,0.51,,2013-02-19 10:17:00,
2013-02-19 04:22:00,59.5,58.8,-100.00,SSE,157,4.2,7.4,97,0.26,,,0.51,,2013-02-19 10:22:00,
2013-02-19 04:27:00,60.6,59.9,-100.00,SSE,157,4.9,8.9,97,0.24,,,0.51,,2013-02-19 10:27:00,
2013-02-19 04:32:00,60.3,59.5,-100.00,SSE,157,4.5,8.9,96,0.19,,,0.51,,2013-02-19 10:32:00,
2013-02-19 04:37:00,60.1,59.3,-100.00,SSE,157,3.4,6.9,97,0.15,,,0.51,,2013-02-19 10:37:00,
2013-02-19 04:42:00,59.9,59.2,-100.00,South,180,3.7,7.5,97,0.13,,,0.51,,2013-02-19 10:42:00,
2013-02-19 04:47:00,59.9,58.9,-100.00,SSW,202,3.8,7.5,96,0.08,,,0.51,,2013-02-19 10:47:00,
2013-02-19 04:52:00,59.9,59.3,-100.00,South,180,2.7,4.6,97,0.07,,,0.51,,2013-02-19 10:52:00,
2013-02-19 04:57:00,59.9,59.0,-100.00,South,180,2.8,4.6,96,0.05,,,0.51,,2013-02-19 10:57:00,
2013-02-19 05:02:00,59.9,59.0,-100.00,South,180,2.7,4.6,96,0.04,,,0.51,,2013-02-19 11:02:00,
2013-02-19 05:07:00,59.9,59.5,-100.00,SSE,157,2.5,4.3,98,0.02,,,0.51,,2013-02-19 11:07:00,
2013-02-19 05:12:00,59.8,59.1,-100.00,South,180,2.4,4.3,97,0.01,,,0.51,,2013-02-19 11:12:00,
2013-02-19 05:17:00,59.8,58.9,-100.00,South,180,2.2,3.6,96,0.00,,,0.51,,2013-02-19 11:17:00,
2013-02-19 05:23:00,59.7,58.8,-100.00,SSE,157,2.3,4.7,96,0.00,,,0.51,,2013-02-19 11:23:00,
2013-02-19 05:28:00,59.7,58.8,-100.00,SSE,157,2.3,4.7,96,0.00,,,0.51,,2013-02-19 11:28:00,
2013-02-19 05:33:00,59.7,58.8,-100.00,SSE,157,2.3,4.6,97,0.00,,,0.51,,2013-02-19 11:33:00,
2013-02-19 05:38:00,59.6,58.6,-100.00,SSE,157,2.3,4.6,96,0.00,,,0.51,,2013-02-19 11:38:00,
2013-02-19 05:43:00,59.6,58.8,-100.00,South,180,2.1,3.8,97,0.00,,,0.51,,2013-02-19 11:43:00,
2013-02-19 05:48:00,59.6,58.9,-100.00,SSW,202,1.8,3.3,97,0.00,,,0.51,,2013-02-19 11:48:00,
2013-02-19 05:53:00,59.5,58.7,-100.00,South,180,1.8,3.3,97,0.00,,,0.51,,2013-02-19 11:53:00,
2013-02-19 05:58:00,59.3,58.6,-100.00,South,180,1.7,3.8,97,0.00,,,0.51,,2013-02-19 11:58:00,
2013-02-19 06:03:00,59.3,58.6,-100.00,SSE,157,2.1,3.8,97,0.00,,,0.51,,2013-02-19 12:03:00,
2013-02-19 06:08:00,59.2,58.1,-100.00,SSE,157,2.4,3.7,95,0.00,,,0.51,,2013-02-19 12:08:00,
2013-02-19 06:13:00,59.3,58.6,-100.00,SSE,157,2.9,5.0,97,0.00,,,0.51,,2013-02-19 12:13:00,
2013-02-19 06:18:00,59.3,58.6,-100.00,SSE,157,3.0,5.0,97,0.00,,,0.51,,2013-02-19 12:18:00,
2013-02-19 06:23:00,59.3,58.5,-100.00,SSE,157,2.6,4.3,96,0.00,,,0.51,,2013-02-19 12:23:00,
2013-02-19 06:28:00,59.3,58.5,-100.00,SSE,157,2.4,3.5,97,0.00,,,0.51,,2013-02-19 12:28:00,
2013-02-19 06:33:00,59.2,58.5,-100.00,South,180,2.2,3.5,97,0.00,,,0.51,,2013-02-19 12:33:00,
2013-02-19 06:38:00,59.2,58.1,-100.00,South,180,1.6,3.1,95,0.00,,,0.51,,2013-02-19 12:38:00,
2013-02-19 06:43:00,59.3,58.8,-100.00,South,180,1.4,2.8,97,0.00,,,0.51,,2013-02-19 12:43:00,
2013-02-19 06:48:00,59.3,58.5,-100.00,South,180,1.2,4.2,97,0.00,,,0.51,,2013-02-19 12:48:00,
2013-02-19 06:53:00,59.3,58.2,-100.00,South,180,2.0,4.7,95,0.00,,,0.51,,2013-02-19 12:53:00,
2013-02-19 06:58:00,59.3,58.7,-100.00,South,180,2.6,4.9,97,0.00,,,0.51,,2013-02-19 12:58:00,
2013-02-19 07:03:00,59.3,58.5,-100.00,SSW,202,2.7,4.9,96,0.00,,,0.51,,2013-02-19 13:03:00,
2013-02-19 07:09:00,59.3,58.6,-100.00,SW,225,2.8,5.9,97,0.00,,,0.51,,2013-02-19 13:09:00,
2013-02-19 07:14:00,59.3,57.9,-100.00,SSW,202,3.3,5.9,94,0.00,,,0.51,,2013-02-19 13:14:00,
2013-02-19 07:19:00,59.5,57.9,-100.00,South,180,3.3,6.2,94,0.00,,,0.51,,2013-02-19 13:19:00,
2013-02-19 07:24:00,59.5,59.0,-100.00,SSW,202,3.0,6.2,98,0.00,,,0.51,,2013-02-19 13:24:00,
2013-02-19 07:29:00,59.3,58.1,-100.00,SSW,202,3.6,6.7,95,0.00,,,0.51,,2013-02-19 13:29:00,
2013-02-19 07:34:00,59.2,57.9,-100.00,South,180,3.7,7.6,95,0.00,,,0.51,,2013-02-19 13:34:00,
2013-02-19 07:39:00,59.2,57.1,-100.00,South,180,3.4,6.5,92,0.00,,,0.51,,2013-02-19 13:39:00,
2013-02-19 07:44:00,59.1,57.6,-100.00,SSW,202,4.0,6.9,94,0.00,,,0.51,,2013-02-19 13:44:00,
2013-02-19 07:49:00,59.0,57.3,-100.00,SSW,202,4.0,6.4,93,0.00,,,0.51,,2013-02-19 13:49:00,
2013-02-19 07:54:00,59.0,57.5,-100.00,South,180,4.1,8.1,94,0.00,,,0.51,,2013-02-19 13:54:00,
2013-02-19 07:59:00,58.9,57.1,-100.00,SSW,202,4.1,8.1,93,0.00,,,0.51,,2013-02-19 13:59:00,
2013-02-19 08:04:00,58.9,57.1,-100.00,SSW,202,3.6,7.3,93,0.00,,,0.51,,2013-02-19 14:04:00,
2013-02-19 08:09:00,58.9,57.2,-100.00,SSW,202,3.6,6.4,93,0.00,,,0.51,,2013-02-19 14:09:00,
2013-02-19 08:14:00,58.8,56.5,-100.00,SSW,202,3.7,9.6,91,0.00,,,0.51,,2013-02-19 14:14:00,
2013-02-19 08:19:00,59.2,56.5,-100.00,South,180,5.0,9.6,90,0.00,,,0.51,,2013-02-19 14:19:00,
2013-02-19 08:24:00,59.5,56.0,-100.00,SSE,157,5.0,9.2,88,0.00,,,0.51,,2013-02-19 14:24:00,
2013-02-19 08:29:00,59.2,54.9,-100.00,South,180,4.7,9.1,85,0.00,,,0.51,,2013-02-19 14:29:00,
2013-02-19 08:34:00,58.9,54.6,-100.00,SSW,202,5.9,10.6,85,0.00,,,0.51,,2013-02-19 14:34:00,
2013-02-19 08:39:00,59.0,55.3,-100.00,South,180,6.1,11.9,87,0.00,,,0.51,,2013-02-19 14:39:00,
2013-02-19 08:44:00,60.0,55.7,-100.00,South,180,5.7,11.9,85,0.00,,,0.51,,2013-02-19 14:44:00,
2013-02-19 08:49:00,60.2,55.3,-100.00,South,180,5.8,13.9,83,0.00,,,0.51,,2013-02-19 14:49:00,
2013-02-19 08:54:00,59.3,54.1,-100.00,SSW,202,6.7,13.9,82,0.00,,,0.51,,2013-02-19 14:54:00,
2013-02-19 08:59:00,58.9,53.0,-100.00,South,180,6.1,11.4,80,0.00,,,0.51,,2013-02-19 14:59:00,
2013-02-19 09:04:00,59.6,53.8,-100.00,South,180,6.8,12.1,81,0.00,,,0.51,,2013-02-19 15:04:00,
2013-02-19 09:09:00,59.2,53.6,-100.00,SSW,202,7.6,12.1,81,0.00,,,0.51,,2013-02-19 15:09:00,
2013-02-19 09:14:00,58.9,53.1,-100.00,SSW,202,6.5,12.3,80,0.00,,,0.51,,2013-02-19 15:14:00,
2013-02-19 09:19:00,58.8,53.4,-100.00,South,180,6.3,12.3,82,0.00,,,0.51,,2013-02-19 15:19:00,
2013-02-19 09:24:00,59.5,53.4,-100.00,South,180,5.6,11.3,80,0.00,,,0.51,,2013-02-19 15:24:00,
2013-02-19 09:29:00,60.5,53.3,-100.00,SE,135,4.1,6.9,77,0.00,,,0.51,,2013-02-19 15:29:00,
2013-02-19 09:34:00,60.6,53.5,-100.00,SE,135,4.6,8.3,77,0.00,,,0.51,,2013-02-19 15:34:00,
2013-02-19 09:39:00,60.6,52.5,-100.00,SSW,202,6.1,12.5,74,0.00,,,0.51,,2013-02-19 15:39:00,
2013-02-19 09:44:00,61.4,52.7,-100.00,South,180,5.3,9.9,72,0.00,,,0.51,,2013-02-19 15:44:00,
2013-02-19 09:49:00,61.9,52.4,-100.00,SSE,157,4.5,10.7,70,0.00,,,0.51,,2013-02-19 15:49:00,
2013-02-19 09:54:00,61.4,51.1,-100.00,SE,135,4.7,7.6,68,0.00,,,0.51,,2013-02-19 15:54:00,
2013-02-19 09:59:00,60.8,50.2,-100.00,South,180,5.6,13.5,67,0.00,,,0.51,,2013-02-19 15:59:00,
2013-02-19 10:04:00,61.0,50.6,-100.00,SSW,202,6.2,13.5,68,0.00,,,0.51,,2013-02-19 16:04:00,
2013-02-19 10:09:00,61.7,50.2,-100.00,SSW,202,6.1,10.1,65,0.00,,,0.51,,2013-02-19 16:09:00,
2013-02-19 10:14:00,62.2,50.0,-100.00,SSE,157,4.7,8.7,64,0.00,,,0.51,,2013-02-19 16:14:00,
2013-02-19 10:19:00,61.6,48.8,-100.00,South,180,5.4,11.6,62,0.00,,,0.51,,2013-02-19 16:19:00,
2013-02-19 10:24:00,61.9,49.0,-100.00,South,180,6.6,11.6,62,0.00,,,0.51,,2013-02-19 16:24:00,
2013-02-19 10:29:00,61.8,48.8,-100.00,South,180,6.7,11.5,62,0.00,,,0.51,,2013-02-19 16:29:00,
2013-02-19 10:34:00,62.0,47.9,-100.00,SSE,157,5.8,9.2,59,0.00,,,0.51,,2013-02-19 16:34:00,
2013-02-19 10:39:00,61.7,46.2,-100.00,SE,135,6.4,10.0,56,0.00,,,0.51,,2013-02-19 16:39:00,
2013-02-19 10:44:00,62.4,44.5,-100.00,SSE,157,6.9,11.0,51,0.00,,,0.51,,2013-02-19 16:44:00,
2013-02-19 10:49:00,62.0,43.4,-100.00,South,180,7.1,14.6,49,0.00,,,0.51,,2013-02-19 16:49:00,
2013-02-19 10:54:00,63.0,46.0,-100.00,SSE,157,5.7,13.3,53,0.00,,,0.51,,2013-02-19 16:54:00,
2013-02-19 10:59:00,62.3,41.4,-100.00,SE,135,5.5,10.8,45,0.00,,,0.51,,2013-02-19 16:59:00,
2013-02-19 11:04:00,62.3,42.3,-100.00,SSW,202,7.0,12.6,47,0.00,,,0.51,,2013-02-19 17:04:00,
2013-02-19 11:09:00,61.9,42.5,-100.00,South,180,6.5,12.6,48,0.00,,,0.51,,2013-02-19 17:09:00,
2013-02-19 11:14:00,61.9,40.8,-100.00,SSW,202,7.2,13.1,45,0.00,,,0.51,,2013-02-19 17:14:00,
2013-02-19 11:19:00,63.0,41.8,-100.00,SSW,202,7.5,13.1,45,0.00,,,0.51,,2013-02-19 17:19:00,
2013-02-19 11:24:00,62.8,41.7,-100.00,South,180,6.2,12.4,45,0.00,,,0.51,,2013-02-19 17:24:00,
2013-02-19 11:29:00,62.8,40.3,-100.00,SSW,202,7.1,12.4,43,0.00,,,0.51,,2013-02-19 17:29:00,
2013-02-19 11:34:00,62.4,38.9,-100.00,SSW,202,7.2,11.8,41,0.00,,,0.51,,2013-02-19 17:34:00,
2013-02-19 11:39:00,62.6,40.5,-100.00,SSE,157,6.2,10.8,43,0.00,,,0.51,,2013-02-19 17:39:00,
2013-02-19 11:44:00,62.4,39.2,-100.00,South,180,7.9,13.2,41,0.00,,,0.51,,2013-02-19 17:44:00,
2013-02-19 11:49:00,62.6,38.5,-100.00,SSW,202,8.0,13.2,40,0.00,,,0.51,,2013-02-19 17:49:00,
2013-02-19 11:54:00,62.8,38.6,-100.00,South,180,6.7,11.0,40,0.00,,,0.51,,2013-02-19 17:54:00,
2013-02-19 11:59:00,63.3,37.3,-100.00,South,180,6.2,10.2,37,0.00,,,0.51,,2013-02-19 17:59:00,
2013-02-19 12:04:00,62.8,36.3,-100.00,South,180,6.6,10.6,36,0.00,,,0.51,,2013-02-19 18:04:00,
2013-02-19 12:09:00,63.5,37.3,-100.00,SSE,157,6.1,11.7,37,0.00,,,0.51,,2013-02-19 18:09:00,
2013-02-19 12:14:00,63.7,35.8,-100.00,SSE,157,5.7,13.3,35,0.00,,,0.51,,2013-02-19 18:14:00,
2013-02-19 12:19:00,63.8,35.2,-100.00,South,180,5.9,11.3,34,0.00,,,0.51,,2013-02-19 18:19:00,
2013-02-19 12:24:00,64.6,37.0,-100.00,SSW,202,6.1,12.6,35,0.00,,,0.51,,2013-02-19 18:24:00,
2013-02-19 12:29:00,64.4,36.7,-100.00,South,180,5.6,11.1,35,0.00,,,0.51,,2013-02-19 18:29:00,
2013-02-19 12:34:00,64.5,36.0,-100.00,South,180,5.6,10.8,34,0.00,,,0.51,,2013-02-19 18:34:00,
2013-02-19 12:39:00,64.3,30.5,-100.00,SSW,202,6.8,12.9,27,0.00,,,0.51,,2013-02-19 18:39:00,
2013-02-19 12:44:00,64.5,31.1,-100.00,SSW,202,7.9,13.2,28,0.00,,,0.51,,2013-02-19 18:44:00,
2013-02-19 12:49:00,64.3,31.5,-100.00,SSW,202,6.6,11.5,28,0.00,,,0.51,,2013-02-19 18:49:00,
2013-02-19 12:54:00,65.3,33.3,-100.00,SSW,202,5.1,11.2,29,0.00,,,0.51,,2013-02-19 18:54:00,
2013-02-19 12:59:00,66.1,31.9,-100.00,South,180,4.5,7.8,27,0.00,,,0.51,,2013-02-19 18:59:00,
2013-02-19 13:04:00,66.2,31.7,-100.00,SSE,157,5.0,8.7,27,0.00,,,0.51,,2013-02-19 19:04:00,
2013-02-19 13:09:00,65.3,30.0,-100.00,South,180,6.1,10.8,26,0.00,,,0.51,,2013-02-19 19:09:00,
2013-02-19 13:15:00,65.3,30.3,-100.00,South,180,7.0,12.9,26,0.00,,,0.51,,2013-02-19 19:15:00,
2013-02-19 13:20:00,65.8,30.3,-100.00,South,180,6.0,12.9,26,0.00,,,0.51,,2013-02-19 19:20:00,
2013-02-19 13:25:00,65.8,30.4,-100.00,SSE,157,6.2,9.6,26,0.00,,,0.51,,2013-02-19 19:25:00,
2013-02-19 13:30:00,66.0,30.7,-100.00,SSE,157,7.3,12.8,26,0.00,,,0.51,,2013-02-19 19:30:00,
2013-02-19 13:35:00,65.5,29.7,-100.00,South,180,6.8,11.6,25,0.00,,,0.51,,2013-02-19 19:35:00,
2013-02-19 13:40:00,65.9,30.1,-100.00,South,180,6.8,11.7,25,0.00,,,0.51,,2013-02-19 19:40:00,
2013-02-19 13:45:00,66.4,30.5,-100.00,South,180,6.4,11.8,25,0.00,,,0.51,,2013-02-19 19:45:00,
2013-02-19 13:50:00,67.1,31.1,-100.00,South,180,6.2,11.8,25,0.00,,,0.51,,2013-02-19 19:50:00,
2013-02-19 13:55:00,66.7,30.9,-100.00,South,180,5.7,10.9,25,0.00,,,0.51,,2013-02-19 19:55:00,
2013-02-19 14:00:00,66.5,30.6,-100.00,South,180,6.5,10.9,25,0.00,,,0.51,,2013-02-19 20:00:00,
2013-02-19 14:05:00,66.3,30.4,-100.00,SE,135,6.5,13.0,25,0.00,,,0.51,,2013-02-19 20:05:00,
2013-02-19 14:10:00,66.1,30.3,-100.00,ESE,112,6.6,13.0,25,0.00,,,0.51,,2013-02-19 20:10:00,
2013-02-19 14:15:00,65.8,29.9,-100.00,South,180,6.0,10.2,25,0.00,,,0.51,,2013-02-19 20:15:00,
2013-02-19 14:20:00,66.5,31.6,-100.00,South,180,5.3,9.1,26,0.00,,,0.51,,2013-02-19 20:20:00,
2013-02-19 14:25:00,66.0,30.6,-100.00,South,180,5.2,9.1,26,0.00,,,0.51,,2013-02-19 20:25:00,
2013-02-19 14:30:00,66.1,30.2,-100.00,South,180,5.9,10.5,25,0.00,,,0.51,,2013-02-19 20:30:00,
2013-02-19 14:35:00,65.6,29.7,-100.00,South,180,6.2,12.6,25,0.00,,,0.51,,2013-02-19 20:35:00,
2013-02-19 14:40:00,65.5,29.7,-100.00,SSE,157,6.7,11.3,25,0.00,,,0.51,,2013-02-19 20:40:00,
2013-02-19 14:45:00,66.0,30.1,-100.00,SE,135,5.8,9.9,25,0.00,,,0.51,,2013-02-19 20:45:00,
2013-02-19 14:50:00,66.7,31.2,-100.00,ESE,112,4.9,8.8,26,0.00,,,0.51,,2013-02-19 20:50:00,
2013-02-19 14:55:00,66.4,30.5,-100.00,South,180,5.5,12.2,25,0.00,,,0.51,,2013-02-19 20:55:00,
2013-02-19 15:00:00,66.4,30.5,-100.00,South,180,5.8,12.2,25,0.00,,,0.51,,2013-02-19 21:00:00,
2013-02-19 15:05:00,65.9,29.5,-100.00,South,180,7.2,13.4,25,0.00,,,0.51,,2013-02-19 21:05:00,
2013-02-19 15:10:00,65.9,29.1,-100.00,SSE,157,6.3,12.6,24,0.00,,,0.51,,2013-02-19 21:10:00,
2013-02-19 15:15:00,66.5,30.1,-100.00,SSE,157,5.2,8.9,25,0.00,,,0.51,,2013-02-19 21:15:00,
2013-02-19 15:20:00,66.1,29.9,-100.00,SSE,157,5.3,10.7,25,0.00,,,0.51,,2013-02-19 21:20:00,
2013-02-19 15:25:00,65.8,29.4,-100.00,SE,135,6.2,11.8,25,0.00,,,0.51,,2013-02-19 21:25:00,
2013-02-19 15:30:00,65.3,28.5,-100.00,SE,135,6.6,11.8,24,0.00,,,0.51,,2013-02-19 21:30:00,
2013-02-19 15:36:00,65.9,29.0,-100.00,ESE,112,5.6,11.1,24,0.00,,,0.51,,2013-02-19 21:36:00,
2013-02-19 15:41:00,65.6,29.9,-100.00,SSE,157,5.9,11.1,25,0.00,,,0.51,,2013-02-19 21:41:00,
2013-02-19 15:46:00,66.1,29.2,-100.00,SSW,202,5.4,9.2,24,0.00,,,0.51,,2013-02-19 21:46:00,
2013-02-19 15:51:00,65.8,29.1,-100.00,SSW,202,5.0,11.8,24,0.00,,,0.51,,2013-02-19 21:51:00,
2013-02-19 15:56:00,65.3,28.5,-100.00,SSW,202,7.4,13.3,24,0.00,,,0.51,,2013-02-19 21:56:00,
2013-02-19 16:01:00,65.8,28.5,-100.00,SSW,202,6.5,12.4,24,0.00,,,0.51,,2013-02-19 22:01:00,
2013-02-19 16:06:00,65.6,28.8,-100.00,SSE,157,5.0,10.5,24,0.00,,,0.51,,2013-02-19 22:06:00,
2013-02-19 16:11:00,66.0,30.2,-100.00,SSE,157,5.0,10.5,25,0.00,,,0.51,,2013-02-19 22:11:00,
2013-02-19 16:16:00,65.3,28.5,-100.00,South,180,6.2,11.8,24,0.00,,,0.51,,2013-02-19 22:16:00,
2013-02-19 16:21:00,65.5,29.1,-100.00,SSE,157,5.6,10.5,25,0.00,,,0.51,,2013-02-19 22:21:00,
2013-02-19 16:26:00,65.2,29.5,-100.00,South,180,5.5,10.5,25,0.00,,,0.51,,2013-02-19 22:26:00,
2013-02-19 16:31:00,65.5,29.6,-100.00,SSE,157,5.1,9.8,25,0.00,,,0.51,,2013-02-19 22:31:00,
2013-02-19 16:36:00,65.3,28.7,-100.00,South,180,5.0,11.9,24,0.00,,,0.51,,2013-02-19 22:36:00,
2013-02-19 16:41:00,64.8,28.1,-100.00,South,180,4.8,9.5,24,0.00,,,0.51,,2013-02-19 22:41:00,
2013-02-19 16:46:00,64.4,27.7,-100.00,SE,135,4.8,8.7,24,0.00,,,0.51,,2013-02-19 22:46:00,
2013-02-19 16:51:00,64.6,29.0,-100.00,SE,135,5.2,9.0,25,0.00,,,0.51,,2013-02-19 22:51:00,
2013-02-19 16:56:00,64.5,27.8,-100.00,SE,135,4.1,9.0,24,0.00,,,0.51,,2013-02-19 22:56:00,
2013-02-19 17:01:00,64.2,27.2,-100.00,SE,135,3.8,8.1,24,0.00,,,0.51,,2013-02-19 23:01:00,
2013-02-19 17:06:00,63.8,27.6,-100.00,SE,135,4.1,8.1,24,0.00,,,0.51,,2013-02-19 23:06:00,
2013-02-19 17:11:00,63.2,27.0,-100.00,SE,135,3.9,6.6,25,0.00,,,0.51,,2013-02-19 23:11:00,
2013-02-19 17:16:00,62.8,27.0,-100.00,SE,135,3.5,6.8,25,0.00,,,0.51,,2013-02-19 23:16:00,
2013-02-19 17:21:00,62.7,27.1,-100.00,SSE,157,3.1,6.8,25,0.00,,,0.51,,2013-02-19 23:21:00,
2013-02-19 17:26:00,62.0,26.5,-100.00,SSE,157,3.2,5.6,25,0.00,,,0.51,,2013-02-19 23:26:00,
2013-02-19 17:31:00,61.6,26.6,-100.00,SE,135,3.6,6.8,26,0.00,,,0.51,,2013-02-19 23:31:00,
2013-02-19 17:36:00,61.1,25.7,-100.00,SE,135,3.4,6.5,25,0.00,,,0.51,,2013-02-19 23:36:00,
2013-02-19 17:41:00,60.9,25.5,-100.00,SE,135,3.1,5.6,25,0.00,,,0.51,,2013-02-19 23:41:00,
2013-02-19 17:46:00,60.3,24.9,-100.00,SSE,157,2.8,4.9,25,0.00,,,0.51,,2013-02-19 23:46:00,
2013-02-19 17:51:00,59.9,24.7,-100.00,South,180,2.7,5.5,25,0.00,,,0.51,,2013-02-19 23:51:00,
2013-02-19 17:56:00,59.7,24.5,-100.00,South,180,2.9,5.5,25,0.00,,,0.51,,2013-02-19 23:56:00,
2013-02-19 18:01:00,59.2,24.9,-100.00,South,180,2.1,4.9,26,0.00,,,0.51,,2013-02-20 00:01:00,
2013-02-19 18:06:00,58.8,24.0,-100.00,SSW,202,2.0,4.9,25,0.00,,,0.51,,2013-02-20 00:06:00,
2013-02-19 18:11:00,58.4,24.0,-100.00,SSW,202,2.1,4.2,26,0.00,,,0.51,,2013-02-20 00:11:00,
2013-02-19 18:16:00,58.0,22.6,-100.00,SSW,202,2.1,4.2,25,0.00,,,0.51,,2013-02-20 00:16:00,
2013-02-19 18:21:00,57.8,23.0,-100.00,SSW,202,2.2,4.2,25,0.00,,,0.51,,2013-02-20 00:21:00,
2013-02-19 18:26:00,57.4,23.1,-100.00,South,180,1.6,3.5,26,0.00,,,0.51,,2013-02-20 00:26:00,
2013-02-19 18:32:00,57.2,23.0,-100.00,SSW,202,1.2,2.2,26,0.00,,,0.51,,2013-02-20 00:32:00,
2013-02-19 18:37:00,56.9,22.5,-100.00,SW,225,1.1,2.3,26,0.00,,,0.51,,2013-02-20 00:37:00,
2013-02-19 18:42:00,56.5,23.3,-100.00,SSW,202,0.9,2.2,27,0.00,,,0.51,,2013-02-20 00:42:00,
2013-02-19 18:47:00,56.2,23.2,-100.00,SSE,157,0.8,2.1,27,0.00,,,0.51,,2013-02-20 00:47:00,
2013-02-19 18:52:00,55.7,23.6,-100.00,SSW,202,0.9,2.1,28,0.00,,,0.51,,2013-02-20 00:52:00,
2013-02-19 18:57:00,55.4,24.3,-100.00,South,180,0.9,1.9,29,0.00,,,0.51,,2013-02-20 00:57:00,
2013-02-19 19:02:00,55.0,24.6,-100.00,SSE,157,0.9,1.7,30,0.00,,,0.51,,2013-02-20 01:02:00,
2013-02-19 19:07:00,54.8,25.4,-100.00,SSW,202,1.4,3.1,31,0.00,,,0.51,,2013-02-20 01:07:00,
2013-02-19 19:12:00,54.5,25.0,-100.00,South,180,1.5,2.8,31,0.00,,,0.51,,2013-02-20 01:12:00,
2013-02-19 19:17:00,54.3,26.1,-100.00,South,180,1.4,3.8,33,0.00,,,0.51,,2013-02-20 01:17:00,
2013-02-19 19:22:00,54.3,25.7,-100.00,SSW,202,1.9,4.1,32,0.00,,,0.51,,2013-02-20 01:22:00,
2013-02-19 19:27:00,54.3,26.2,-100.00,SSW,202,2.3,4.1,33,0.00,,,0.51,,2013-02-20 01:27:00,
2013-02-19 19:32:00,54.2,26.4,-100.00,SSW,202,2.2,3.9,33,0.00,,,0.51,,2013-02-20 01:32:00,
2013-02-19 19:37:00,54.2,26.2,-100.00,SSW,202,2.2,4.3,33,0.00,,,0.51,,2013-02-20 01:37:00,
2013-02-19 19:42:00,53.9,26.1,-100.00,South,180,2.3,4.6,33,0.00,,,0.51,,2013-02-20 01:42:00,
2013-02-19 19:47:00,53.9,26.9,-100.00,South,180,2.3,5.1,34,0.00,,,0.51,,2013-02-20 01:47:00,
2013-02-19 19:52:00,53.8,25.8,-100.00,SSW,202,2.3,5.1,33,0.00,,,0.51,,2013-02-20 01:52:00,
2013-02-19 19:57:00,53.7,25.6,-100.00,SSW,202,2.3,4.6,33,0.00,,,0.51,,2013-02-20 01:57:00,
2013-02-19 20:02:00,53.3,26.6,-100.00,SW,225,1.9,4.2,35,0.00,,,0.51,,2013-02-20 02:02:00,
2013-02-19 20:07:00,53.0,26.8,-100.00,SW,225,1.3,3.1,35,0.00,,,0.51,,2013-02-20 02:07:00,
2013-02-19 20:12:00,52.8,26.5,-100.00,SW,225,1.1,2.3,35,0.00,,,0.51,,2013-02-20 02:12:00,
2013-02-19 20:17:00,52.4,26.8,-100.00,WSW,247,0.8,2.2,36,0.00,,,0.51,,2013-02-20 02:17:00,
2013-02-19 20:22:00,52.2,27.1,-100.00,ESE,112,1.0,2.2,37,0.00,,,0.51,,2013-02-20 02:22:00,
2013-02-19 20:27:00,52.0,27.2,-100.00,ENE,67,1.2,2.2,37,0.00,,,0.51,,2013-02-20 02:27:00,
2013-02-19 20:33:00,51.8,26.8,-100.00,SE,135,1.1,1.9,37,0.00,,,0.51,,2013-02-20 02:33:00,
2013-02-19 20:38:00,51.6,27.1,-100.00,SE,135,1.3,3.5,38,0.00,,,0.51,,2013-02-20 02:38:00,
2013-02-19 20:43:00,51.5,27.1,-100.00,SSW,202,1.8,3.9,38,0.00,,,0.51,,2013-02-20 02:43:00,
2013-02-19 20:48:00,51.5,27.0,-100.00,SSW,202,2.2,3.9,38,0.00,,,0.51,,2013-02-20 02:48:00,
2013-02-19 20:53:00,51.6,26.5,-100.00,SW,225,2.4,4.1,37,0.00,,,0.51,,2013-02-20 02:53:00,
2013-02-19 20:58:00,51.3,26.9,-100.00,SSW,202,2.0,4.1,38,0.00,,,0.51,,2013-02-20 02:58:00,
2013-02-19 21:03:00,51.2,27.6,-100.00,SSW,202,1.7,5.3,39,0.00,,,0.51,,2013-02-20 03:03:00,
2013-02-19 21:08:00,51.0,27.3,-100.00,South,180,1.7,3.4,39,0.00,,,0.51,,2013-02-20 03:08:00,
2013-02-19 21:13:00,50.8,27.5,-100.00,SE,135,1.8,3.6,40,0.00,,,0.51,,2013-02-20 03:13:00,
2013-02-19 21:18:00,50.7,27.2,-100.00,SSW,202,1.7,3.3,39,0.00,,,0.51,,2013-02-20 03:18:00,
2013-02-19 21:23:00,50.5,27.0,-100.00,South,180,2.1,4.7,39,0.00,,,0.51,,2013-02-20 03:23:00,
2013-02-19 21:28:00,50.2,27.5,-100.00,SSE,157,1.5,3.7,41,0.00,,,0.51,,2013-02-20 03:28:00,
2013-02-19 21:33:00,49.9,27.3,-100.00,SSE,157,1.5,3.7,41,0.00,,,0.51,,2013-02-20 03:33:00,
2013-02-19 21:38:00,49.5,27.4,-100.00,SW,225,1.6,3.7,41,0.00,,,0.51,,2013-02-20 03:38:00,
2013-02-19 21:43:00,49.3,27.9,-100.00,SSW,202,1.8,3.2,43,0.00,,,0.51,,2013-02-20 03:43:00,
2013-02-19 21:48:00,49.1,28.1,-100.00,South,180,1.7,3.3,43,0.00,,,0.51,,2013-02-20 03:48:00,
2013-02-19 21:53:00,48.9,27.8,-100.00,SSE,157,1.5,3.3,43,0.00,,,0.51,,2013-02-20 03:53:00,
2013-02-19 21:58:00,48.7,28.9,-100.00,SSE,157,1.4,3.3,46,0.00,,,0.51,,2013-02-20 03:58:00,
2013-02-19 22:03:00,48.5,28.2,-100.00,SSW,202,1.3,2.5,44,0.00,,,0.51,,2013-02-20 04:03:00,
2013-02-19 22:08:00,48.5,27.9,-100.00,SW,225,1.5,3.0,44,0.00,,,0.51,,2013-02-20 04:08:00,
2013-02-19 22:13:00,48.2,28.3,-100.00,SSW,202,1.6,3.3,45,0.00,,,0.51,,2013-02-20 04:13:00,
2013-02-19 22:18:00,48.1,28.7,-100.00,SSW,202,2.0,4.6,46,0.00,,,0.51,,2013-02-20 04:18:00,
2013-02-19 22:23:00,48.0,28.7,-100.00,South,180,1.8,3.7,46,0.00,,,0.51,,2013-02-20 04:23:00,
2013-02-19 22:28:00,48.0,28.5,-100.00,SSW,202,2.2,6.1,46,0.00,,,0.51,,2013-02-20 04:28:00,
2013-02-19 22:33:00,47.9,28.5,-100.00,South,180,2.1,5.9,46,0.00,,,0.51,,2013-02-20 04:33:00,
2013-02-19 22:38:00,48.0,28.0,-100.00,SSE,157,2.2,4.6,45,0.00,,,0.51,,2013-02-20 04:38:00,
2013-02-19 22:43:00,48.0,27.9,-100.00,South,180,2.6,7.1,45,0.00,,,0.51,,2013-02-20 04:43:00,
2013-02-19 22:48:00,47.8,27.9,-100.00,South,180,2.9,7.1,45,0.00,,,0.51,,2013-02-20 04:48:00,
2013-02-19 22:54:00,47.6,27.6,-100.00,SSE,157,2.7,6.2,45,0.00,,,0.51,,2013-02-20 04:54:00,
2013-02-19 22:59:00,47.4,27.6,-100.00,SSE,157,2.1,4.9,45,0.00,,,0.51,,2013-02-20 04:59:00,
2013-02-19 23:00:00,47.4,27.2,-100.00,SSE,157,2.0,4.9,45,0.00,,,0.51,,2013-02-20 05:00:00,
2013-02-19 23:01:00,47.4,27.5,-100.00,SSE,157,1.8,3.4,45,0.00,,,0.51,,2013-02-20 05:01:00,
2013-02-19 23:06:00,47.2,27.5,-100.00,South,180,1.9,3.9,45,0.00,,,0.51,,2013-02-20 05:06:00,
2013-02-19 23:11:00,47.0,27.5,-100.00,SSE,157,1.9,3.9,46,0.00,,,0.51,,2013-02-20 05:11:00,
2013-02-19 23:16:00,46.8,27.1,-100.00,South,180,2.1,3.8,45,0.00,,,0.51,,2013-02-20 05:16:00,
2013-02-19 23:21:00,46.7,27.4,-100.00,SW,225,2.0,3.8,46,0.00,,,0.51,,2013-02-20 05:21:00,
2013-02-19 23:26:00,46.5,27.6,-100.00,South,180,1.4,3.3,47,0.00,,,0.51,,2013-02-20 05:26:00,
2013-02-19 23:31:00,46.2,27.5,-100.00,South,180,1.2,2.2,47,0.00,,,0.51,,2013-02-20 05:31:00,
2013-02-19 23:37:00,46.2,27.4,-100.00,SSW,202,1.7,3.4,47,0.00,,,0.51,,2013-02-20 05:37:00,
2013-02-19 23:42:00,46.0,27.5,-100.00,SW,225,1.4,3.4,48,0.00,,,0.51,,2013-02-20 05:42:00,
2013-02-19 23:47:00,45.8,27.8,-100.00,SW,225,0.5,1.8,48,0.00,,,0.51,,2013-02-20 05:47:00,
2013-02-19 23:52:00,45.6,27.7,-100.00,SW,225,0.2,1.2,49,0.00,,,0.51,,2013-02-20 05:52:00,
2013-02-19 23:57:00,45.4,28.2,-100.00,SSW,202,0.5,1.2,50,0.00,,,0.51,,2013-02-20 05:57:00,